createdAt,value
2019-05-18T00:02:34.437Z,94.30
2019-05-18T00:06:36.408Z,94.50
2019-05-18T00:10:38.482Z,94.70
2019-05-18T00:14:40.386Z,95.10
2019-05-18T00:18:43.652Z,95.00
2019-05-18T00:22:45.536Z,95.40
2019-05-18T00:26:47.436Z,95.20
2019-05-18T00:30:49.531Z,95.70
2019-05-18T00:34:51.435Z,95.50
2019-05-18T00:38:53.416Z,95.10
2019-05-18T00:42:55.327Z,95.20
2019-05-18T00:46:57.225Z,95.10
2019-05-18T00:50:59.198Z,94.90
2019-05-18T00:55:02.459Z,95.00
2019-05-18T00:59:04.480Z,94.90
2019-05-18T01:03:06.416Z,95.10
2019-05-18T01:07:08.402Z,94.80
2019-05-18T01:11:10.320Z,94.80
2019-05-18T01:15:16.859Z,95.10
2019-05-18T01:19:18.842Z,94.90
2019-05-18T01:23:20.723Z,95.20
2019-05-18T01:27:22.701Z,95.60
2019-05-18T01:31:24.588Z,95.70
2019-05-18T01:35:26.509Z,95.80
2019-05-18T01:39:28.429Z,95.60
2019-05-18T01:43:30.536Z,95.90
2019-05-18T01:47:32.567Z,95.90
2019-05-18T01:51:35.037Z,95.80
2019-05-18T01:55:37.904Z,95.70
2019-05-18T01:59:39.840Z,95.90
2019-05-18T02:03:41.728Z,96.00
2019-05-18T02:07:43.651Z,95.90
2019-05-18T02:11:45.545Z,95.70
2019-05-18T02:15:47.469Z,95.60
2019-05-18T02:19:49.390Z,95.70
2019-05-18T02:23:51.320Z,96.00
2019-05-18T02:27:53.203Z,95.60
2019-05-18T02:31:55.184Z,95.70
2019-05-18T02:35:57.081Z,95.50
2019-05-18T02:39:59.949Z,95.80
2019-05-18T02:44:02.698Z,95.60
2019-05-18T02:48:05.640Z,96.00
2019-05-18T02:52:07.555Z,96.40
2019-05-18T02:56:09.431Z,96.00
2019-05-18T03:00:12.249Z,96.20
2019-05-18T03:04:14.201Z,96.30
2019-05-18T03:08:16.103Z,96.20
2019-05-18T03:12:17.999Z,96.40
2019-05-18T03:16:19.943Z,96.20
2019-05-18T03:20:21.934Z,96.10
2019-05-18T03:24:23.826Z,96.10
2019-05-18T03:28:25.739Z,96.20
2019-05-18T03:32:27.625Z,96.60
2019-05-18T03:36:29.520Z,96.40
2019-05-18T03:40:31.488Z,97.00
2019-05-18T03:44:33.453Z,96.70
2019-05-18T03:48:35.441Z,97.10
2019-05-18T03:52:37.360Z,97.00
2019-05-18T03:56:39.241Z,96.90
2019-05-18T04:00:41.153Z,96.40
2019-05-18T04:04:43.034Z,97.00
2019-05-18T04:08:44.934Z,97.10
2019-05-18T04:12:46.912Z,97.30
2019-05-18T04:16:48.859Z,97.40
2019-05-18T04:20:50.755Z,97.20
2019-05-18T04:24:52.658Z,97.30
2019-05-18T04:28:55.620Z,97.20
2019-05-18T04:32:57.536Z,96.90
2019-05-18T04:36:59.422Z,97.20
2019-05-18T04:41:02.556Z,97.50
2019-05-18T04:45:08.229Z,97.60
2019-05-18T04:49:10.122Z,97.70
2019-05-18T04:53:12.039Z,97.90
2019-05-18T04:57:13.952Z,97.80
2019-05-18T05:01:15.901Z,97.50
2019-05-18T05:05:17.813Z,97.80
2019-05-18T05:09:19.706Z,98.40
2019-05-18T05:13:21.608Z,98.70
2019-05-18T05:17:25.178Z,99.10
2019-05-18T05:21:27.059Z,99.60
2019-05-18T05:25:28.965Z,99.90
2019-05-18T05:29:30.873Z,99.90
2019-05-18T05:33:32.771Z,99.90
2019-05-18T05:37:34.680Z,99.90
2019-05-18T05:41:36.618Z,99.60
2019-05-18T05:45:38.510Z,99.20
2019-05-18T05:49:40.422Z,98.70
2019-05-18T05:53:42.364Z,98.50
2019-05-18T05:57:44.344Z,97.60
2019-05-18T06:01:46.282Z,96.60
2019-05-18T06:05:48.305Z,96.30
2019-05-18T06:09:50.244Z,96.60
2019-05-18T06:13:52.150Z,96.30
2019-05-18T06:17:54.750Z,96.10
2019-05-18T06:21:56.715Z,95.80
2019-05-18T06:25:58.656Z,94.90
2019-05-18T06:30:00.561Z,95.20
2019-05-18T06:34:02.623Z,95.10
2019-05-18T06:38:05.099Z,94.60
2019-05-18T06:42:10.755Z,94.90
2019-05-18T06:46:11.625Z,95.00
2019-05-18T06:50:15.847Z,94.00
2019-05-18T06:54:17.769Z,93.60
2019-05-18T06:58:21.532Z,93.60
2019-05-18T07:02:23.507Z,93.30
2019-05-18T07:06:25.420Z,93.00
2019-05-18T07:10:27.356Z,92.40
2019-05-18T07:14:29.259Z,92.80
2019-05-18T07:18:31.203Z,92.90
2019-05-18T07:22:33.123Z,93.00
2019-05-18T07:26:35.060Z,92.30
2019-05-18T07:30:37.332Z,92.20
2019-05-18T07:34:39.243Z,90.90
2019-05-18T07:38:41.231Z,91.20
2019-05-18T07:42:43.156Z,90.50
2019-05-18T07:46:45.109Z,90.60
2019-05-18T07:50:47.020Z,88.30
2019-05-18T07:54:48.942Z,89.30
2019-05-18T07:58:50.843Z,87.70
2019-05-18T08:02:52.783Z,87.30
2019-05-18T08:06:54.712Z,88.10
2019-05-18T08:10:56.667Z,86.20
2019-05-18T08:14:58.582Z,85.00
2019-05-18T08:19:01.426Z,85.60
2019-05-18T08:23:03.356Z,85.70
2019-05-18T08:27:05.311Z,83.60
2019-05-18T08:31:08.183Z,82.90
2019-05-18T08:35:10.708Z,81.20
2019-05-18T08:39:12.642Z,82.20
2019-05-18T08:43:14.582Z,80.40
2019-05-18T08:47:16.501Z,81.60
2019-05-18T08:51:18.410Z,80.70
2019-05-18T08:55:20.403Z,79.60
2019-05-18T08:59:23.486Z,79.30
2019-05-18T09:03:25.407Z,77.30
2019-05-18T09:07:27.305Z,77.80
2019-05-18T09:11:29.230Z,77.40
2019-05-18T09:15:31.328Z,77.20
2019-05-18T09:19:33.233Z,77.00
2019-05-18T09:23:35.141Z,78.60
2019-05-18T09:27:37.126Z,74.30
2019-05-18T09:31:39.151Z,74.60
2019-05-18T09:35:41.023Z,71.50
2019-05-18T09:39:42.971Z,71.20
2019-05-18T09:43:44.907Z,69.60
2019-05-18T09:47:46.914Z,69.70
2019-05-18T09:51:48.839Z,67.90
2019-05-18T09:55:50.744Z,67.90
2019-05-18T09:59:52.654Z,67.60
2019-05-18T10:03:54.546Z,64.60
2019-05-18T10:07:56.459Z,65.10
2019-05-18T10:11:58.380Z,61.60
2019-05-18T10:16:00.275Z,60.60
2019-05-18T10:20:03.144Z,62.00
2019-05-18T10:24:05.124Z,59.80
2019-05-18T10:28:07.091Z,59.60
2019-05-18T10:32:09.014Z,59.70
2019-05-18T10:36:11.772Z,60.70
2019-05-18T10:40:14.211Z,59.90
2019-05-18T10:44:16.122Z,59.70
2019-05-18T10:48:18.029Z,57.00
2019-05-18T10:52:19.942Z,56.90
2019-05-18T10:56:22.794Z,58.10
2019-05-18T11:00:25.092Z,55.30
2019-05-18T11:04:27.000Z,54.20
2019-05-18T11:08:29.334Z,55.60
2019-05-18T11:12:31.252Z,57.10
2019-05-18T11:16:33.288Z,55.20
2019-05-18T11:20:35.183Z,54.00
2019-05-18T11:24:37.168Z,51.20
2019-05-18T11:28:39.082Z,51.80
2019-05-18T11:32:41.368Z,51.90
2019-05-18T11:36:43.343Z,53.60
2019-05-18T11:40:45.251Z,50.00
2019-05-18T11:44:47.339Z,51.00
2019-05-18T11:48:49.720Z,50.90
2019-05-18T11:52:51.645Z,49.60
2019-05-18T11:56:53.756Z,50.70
2019-05-18T12:00:55.652Z,51.40
2019-05-18T12:04:57.560Z,48.70
2019-05-18T12:08:59.539Z,48.10
2019-05-18T12:13:01.633Z,46.80
2019-05-18T12:17:03.529Z,46.40
2019-05-18T12:21:05.447Z,46.80
2019-05-18T12:25:08.756Z,48.30
2019-05-18T12:29:10.698Z,47.00
2019-05-18T12:33:12.742Z,46.70
2019-05-18T12:37:16.313Z,44.30
2019-05-18T12:41:19.869Z,42.60
2019-05-18T12:45:22.455Z,43.10
2019-05-18T12:49:24.352Z,42.50
2019-05-18T12:53:26.273Z,42.60
2019-05-18T12:57:28.251Z,43.30
2019-05-18T13:01:30.178Z,40.00
2019-05-18T13:05:32.099Z,39.30
2019-05-18T13:09:34.016Z,40.00
2019-05-18T13:13:35.965Z,40.10
2019-05-18T13:17:38.041Z,38.70
2019-05-18T13:21:40.001Z,37.60
2019-05-18T13:25:42.033Z,37.20
2019-05-18T13:29:43.951Z,38.60
2019-05-18T13:33:45.844Z,37.20
2019-05-18T13:37:47.831Z,36.80
2019-05-18T13:41:50.300Z,37.20
2019-05-18T13:45:52.282Z,37.00
2019-05-18T13:49:54.321Z,37.30
2019-05-18T13:53:56.273Z,37.10
2019-05-18T13:57:58.508Z,38.80
2019-05-18T14:02:00.460Z,38.10
2019-05-18T14:06:03.059Z,37.20
2019-05-18T14:10:08.145Z,38.60
2019-05-18T14:14:10.064Z,37.00
2019-05-18T14:18:11.977Z,34.40
2019-05-18T14:22:13.889Z,34.70
2019-05-18T14:26:15.876Z,35.80
2019-05-18T14:30:19.485Z,34.80
2019-05-18T14:34:21.404Z,35.80
2019-05-18T14:38:23.312Z,34.40
2019-05-18T14:42:26.203Z,34.80
2019-05-18T14:46:28.194Z,35.60
2019-05-18T14:50:30.206Z,36.00
2019-05-18T14:54:32.139Z,35.60
2019-05-18T14:58:34.068Z,35.20
2019-05-18T15:02:35.981Z,33.30
2019-05-18T15:06:37.895Z,33.50
2019-05-18T15:10:39.795Z,35.40
2019-05-18T15:14:41.705Z,35.40
2019-05-18T15:18:43.822Z,34.60
2019-05-18T15:22:45.744Z,36.50
2019-05-18T15:26:47.714Z,37.40
2019-05-18T15:30:50.680Z,35.70
2019-05-18T15:34:52.647Z,34.80
2019-05-18T15:38:54.549Z,34.20
2019-05-18T15:42:56.444Z,34.60
2019-05-18T15:46:58.481Z,34.40
2019-05-18T15:51:00.387Z,33.80
2019-05-18T15:55:03.048Z,34.70
2019-05-18T15:59:04.987Z,34.60
2019-05-18T16:03:07.603Z,35.20
2019-05-18T16:07:09.604Z,35.10
2019-05-18T16:11:11.579Z,34.40
2019-05-18T16:15:14.911Z,36.60
2019-05-18T16:19:17.952Z,37.90
2019-05-18T16:23:19.865Z,38.50
2019-05-18T16:27:21.821Z,38.40
2019-05-18T16:31:23.702Z,39.30
2019-05-18T16:35:25.627Z,41.00
2019-05-18T16:39:27.527Z,41.90
2019-05-18T16:43:29.475Z,42.80
2019-05-18T16:47:31.395Z,43.60
2019-05-18T16:51:33.314Z,44.20
2019-05-18T16:55:35.231Z,44.20
2019-05-18T16:59:37.225Z,44.60
2019-05-18T17:03:39.143Z,45.60
2019-05-18T17:07:41.131Z,45.80
2019-05-18T17:11:47.871Z,45.20
2019-05-18T17:15:48.148Z,46.50
2019-05-18T17:19:50.080Z,46.40
2019-05-18T17:23:53.698Z,47.00
2019-05-18T17:27:55.680Z,47.60
2019-05-18T17:31:57.766Z,48.20
2019-05-18T17:36:00.808Z,47.60
2019-05-18T17:40:05.160Z,47.60
2019-05-18T17:44:07.103Z,47.40
2019-05-18T17:48:10.265Z,48.00
2019-05-18T17:52:12.169Z,48.30
2019-05-18T17:56:14.071Z,48.10
2019-05-18T18:00:18.433Z,49.10
2019-05-18T18:04:20.336Z,49.90
2019-05-18T18:08:22.242Z,51.00
2019-05-18T18:12:24.217Z,51.30
2019-05-18T18:16:26.407Z,51.30
2019-05-18T18:20:28.380Z,52.90
2019-05-18T18:24:30.297Z,54.10
2019-05-18T18:28:32.283Z,56.90
2019-05-18T18:32:34.214Z,58.60
2019-05-18T18:36:36.701Z,59.80
2019-05-18T18:40:38.604Z,61.40
2019-05-18T18:44:40.529Z,63.20
2019-05-18T18:48:43.321Z,64.40
2019-05-18T18:52:45.220Z,65.10
2019-05-18T18:56:47.139Z,66.30
2019-05-18T19:00:49.053Z,66.90
2019-05-18T19:04:51.010Z,67.60
2019-05-18T19:08:52.932Z,69.00
2019-05-18T19:12:54.860Z,70.80
2019-05-18T19:16:56.822Z,73.40
2019-05-18T19:20:58.805Z,73.30
2019-05-18T19:25:00.703Z,73.60
2019-05-18T19:29:03.240Z,73.70
2019-05-18T19:33:05.163Z,74.20
2019-05-18T19:37:07.064Z,74.70
2019-05-18T19:41:08.996Z,75.50
2019-05-18T19:45:11.710Z,76.30
2019-05-18T19:49:13.696Z,76.80
2019-05-18T19:53:15.604Z,77.60
2019-05-18T19:57:17.524Z,78.70
2019-05-18T20:01:19.444Z,79.30
2019-05-18T20:05:21.503Z,80.30
2019-05-18T20:09:24.994Z,81.20
2019-05-18T20:13:26.932Z,81.60
2019-05-18T20:17:28.830Z,82.60
2019-05-18T20:21:30.756Z,83.50
2019-05-18T20:25:32.746Z,83.90
2019-05-18T20:29:34.642Z,84.20
2019-05-18T20:33:36.554Z,84.20
2019-05-18T20:37:38.485Z,84.50
2019-05-18T20:41:41.458Z,85.20
2019-05-18T20:45:43.363Z,86.00
2019-05-18T20:49:45.280Z,86.40
2019-05-18T20:53:47.486Z,87.20
2019-05-18T20:57:49.384Z,87.50
2019-05-18T21:01:51.288Z,88.60
2019-05-18T21:05:53.184Z,88.50
2019-05-18T21:09:55.096Z,89.90
2019-05-18T21:13:57.835Z,89.90
2019-05-18T21:17:59.808Z,90.10
2019-05-18T21:22:01.767Z,90.10
2019-05-18T21:26:03.815Z,90.10
2019-05-18T21:30:07.203Z,90.40
2019-05-18T21:34:09.125Z,90.50
2019-05-18T21:38:11.045Z,90.70
2019-05-18T21:42:13.015Z,90.60
2019-05-18T21:46:14.907Z,90.80
2019-05-18T21:50:17.140Z,91.10
2019-05-18T21:54:19.060Z,91.20
2019-05-18T21:58:20.962Z,91.40
2019-05-18T22:02:22.977Z,91.50
2019-05-18T22:06:24.888Z,91.60
2019-05-18T22:10:26.809Z,91.80
2019-05-18T22:14:29.349Z,92.10
2019-05-18T22:18:31.269Z,92.10
2019-05-18T22:22:33.165Z,92.10
2019-05-18T22:26:35.321Z,91.80
2019-05-18T22:30:37.490Z,92.20
2019-05-18T22:34:39.689Z,92.40
2019-05-18T22:38:41.607Z,92.50
2019-05-18T22:42:43.899Z,92.80
2019-05-18T22:46:45.920Z,92.70
2019-05-18T22:50:47.869Z,92.70
2019-05-18T22:54:49.828Z,92.70
2019-05-18T22:58:51.731Z,92.60
2019-05-18T23:02:53.625Z,92.70
2019-05-18T23:06:55.578Z,93.10
2019-05-18T23:10:57.478Z,92.90
2019-05-18T23:15:00.629Z,92.80
2019-05-18T23:19:03.620Z,92.90
2019-05-18T23:23:05.531Z,92.90
2019-05-18T23:27:08.511Z,93.40
2019-05-18T23:31:10.426Z,93.50
2019-05-18T23:35:12.702Z,93.20
2019-05-18T23:39:14.648Z,93.90
2019-05-18T23:43:16.556Z,93.80
2019-05-18T23:47:18.492Z,93.60
2019-05-18T23:51:20.425Z,93.80
2019-05-18T23:55:22.334Z,93.70
2019-05-18T23:59:25.228Z,93.80
